WSO weather

Washabo Airport
Washabo, Sipaliwini, Suriname

Public forecast

Using degrees Celsius for public forecast. Weather courtesy of forecast.io.

Closest aviation weather report (METAR) to Washabo Airport

Report is more than 6 hours old.

Closest report is Ebini Airport, 42.3 nm (78.4 km) NW. Retrieved 2015/03/16 10:57 UTC (5 years ago):

SYEB 161057Z 1612/1623 06010KT 9999 SCT020

Closest aviation forecast (TAF) to Washabo Airport

Forecast is more than 12 hours old.

Closest forecast is Ebini Airport, 42.3 nm (78.4 km) NW. Retrieved 2019/10/19 12:00 UTC (20 hours ago):

TAF SYEB 191000Z 1912/1923 09012KT 9999 BKN020 BECMG 1917/1919 070008KT 7000 TSRA FEW017CB BKN018 BKN038